createdAt,value
2019-05-21T17:48:19.556Z,52.95
2019-05-21T17:49:19.948Z,53.32
2019-05-21T17:50:19.671Z,53.00
2019-05-21T17:51:19.659Z,53.30
2019-05-21T17:52:19.977Z,53.59
2019-05-21T17:53:19.735Z,53.29
2019-05-21T17:54:19.751Z,52.82
2019-05-21T17:55:19.669Z,52.27
2019-05-21T17:56:20.034Z,52.20
2019-05-21T17:57:19.709Z,52.57
2019-05-21T17:58:19.689Z,52.64
2019-05-21T17:59:20.361Z,52.02
2019-05-21T18:00:19.810Z,51.80
2019-05-21T18:01:19.752Z,52.68
2019-05-21T18:02:19.765Z,52.45
2019-05-21T18:03:19.819Z,52.51
2019-05-21T18:04:19.801Z,52.76
2019-05-21T18:05:19.815Z,52.90
2019-05-21T18:06:19.898Z,52.27
2019-05-21T18:07:20.080Z,51.79
2019-05-21T18:08:19.874Z,51.28
2019-05-21T18:09:19.890Z,51.59
2019-05-21T18:10:19.852Z,52.92
2019-05-21T18:11:19.978Z,54.07
2019-05-21T18:12:31.772Z,55.37
2019-05-21T18:13:19.911Z,55.73
2019-05-21T18:14:19.902Z,56.33
2019-05-21T18:15:19.901Z,55.71
2019-05-21T18:16:19.925Z,55.20
2019-05-21T18:17:19.931Z,53.97
2019-05-21T18:18:19.971Z,54.42
2019-05-21T18:19:19.903Z,53.67
2019-05-21T18:20:19.963Z,53.40
2019-05-21T18:21:19.940Z,54.17
2019-05-21T18:22:19.934Z,56.21
2019-05-21T18:23:19.978Z,56.26
2019-05-21T18:24:19.977Z,55.21
2019-05-21T18:25:19.918Z,54.56
2019-05-21T18:26:19.927Z,54.06
2019-05-21T18:27:19.926Z,53.93
2019-05-21T18:28:19.913Z,53.64
2019-05-21T18:29:19.994Z,53.20
2019-05-21T18:30:19.957Z,53.26
2019-05-21T18:31:19.917Z,53.46
2019-05-21T18:32:19.950Z,53.44
2019-05-21T18:33:20.112Z,53.45
2019-05-21T18:34:19.915Z,53.57
2019-05-21T18:35:19.960Z,53.19
2019-05-21T18:36:19.956Z,53.75
2019-05-21T18:37:19.945Z,53.88
2019-05-21T18:38:19.927Z,53.58
2019-05-21T18:39:19.979Z,53.55
2019-05-21T18:40:19.951Z,53.11
2019-05-21T18:41:19.932Z,53.26
2019-05-21T18:42:22.577Z,53.54
2019-05-21T18:43:19.953Z,54.25
2019-05-21T18:44:19.956Z,55.72
2019-05-21T18:45:19.959Z,57.45
2019-05-21T18:46:19.946Z,57.20
2019-05-21T18:47:19.943Z,56.87
2019-05-21T18:48:19.966Z,56.06
2019-05-21T18:49:19.937Z,55.88
2019-05-21T18:50:34.469Z,57.04
2019-05-21T18:51:19.979Z,57.04
2019-05-21T18:52:19.945Z,56.32
2019-05-21T18:53:19.947Z,56.51
2019-05-21T18:54:19.930Z,56.41
2019-05-21T18:55:19.962Z,55.09
2019-05-21T18:56:19.972Z,54.98
2019-05-21T18:57:19.968Z,55.29
2019-05-21T18:58:19.960Z,55.42
2019-05-21T18:59:19.933Z,55.76
2019-05-21T19:00:19.980Z,56.25
2019-05-21T19:01:19.972Z,58.08
2019-05-21T19:02:20.030Z,59.33
2019-05-21T19:03:25.327Z,58.87
2019-05-21T19:04:19.941Z,58.81
2019-05-21T19:05:19.944Z,59.75
2019-05-21T19:06:19.973Z,59.17
2019-05-21T19:07:19.962Z,60.22
2019-05-21T19:08:20.015Z,59.19
2019-05-21T19:09:19.965Z,59.03
2019-05-21T19:10:19.962Z,58.58
2019-05-21T19:11:19.962Z,58.95
2019-05-21T19:12:19.963Z,57.63
2019-05-21T19:13:19.992Z,57.25
2019-05-21T19:14:19.985Z,56.72
2019-05-21T19:15:19.993Z,57.20
2019-05-21T19:16:20.002Z,58.36
2019-05-21T19:17:33.239Z,58.28
2019-05-21T19:18:19.986Z,58.28
2019-05-21T19:19:19.980Z,57.72
2019-05-21T19:20:20.013Z,57.26
2019-05-21T19:21:20.001Z,57.25
2019-05-21T19:22:19.972Z,57.62
2019-05-21T19:23:19.984Z,59.64
2019-05-21T19:24:19.988Z,60.21
2019-05-21T19:25:20.027Z,59.77
2019-05-21T19:26:20.000Z,59.68
2019-05-21T19:27:19.982Z,59.47
2019-05-21T19:28:19.964Z,58.87
2019-05-21T19:29:19.964Z,58.36
2019-05-21T19:30:19.979Z,58.24
2019-05-21T19:31:19.984Z,57.73
2019-05-21T19:32:20.083Z,57.47
2019-05-21T19:33:19.992Z,57.35
2019-05-21T19:34:20.022Z,57.43
2019-05-21T19:35:19.958Z,58.05
2019-05-21T19:36:19.993Z,57.87
2019-05-21T19:37:19.993Z,57.67
2019-05-21T19:38:20.032Z,57.47
2019-05-21T19:39:20.014Z,57.51
2019-05-21T19:40:20.039Z,57.66
2019-05-21T19:41:20.001Z,57.36
2019-05-21T19:42:19.997Z,58.42
2019-05-21T19:43:20.061Z,58.93
2019-05-21T19:44:20.040Z,60.72
2019-05-21T19:45:20.005Z,58.53
2019-05-21T19:46:19.983Z,58.70
2019-05-21T19:47:20.028Z,58.51
2019-05-21T19:48:20.026Z,57.97
2019-05-21T19:49:20.023Z,57.76
2019-05-21T19:50:20.004Z,57.70
2019-05-21T19:51:19.997Z,57.97
2019-05-21T19:52:19.986Z,57.60
2019-05-21T19:53:19.991Z,57.48
2019-05-21T19:54:20.046Z,57.32
2019-05-21T19:55:20.018Z,58.10
2019-05-21T19:56:20.045Z,59.31
2019-05-21T19:57:20.021Z,58.38
2019-05-21T19:58:20.016Z,60.36
2019-05-21T19:59:20.027Z,60.03
2019-05-21T20:00:20.047Z,59.03
2019-05-21T20:01:20.051Z,59.05
2019-05-21T20:02:19.997Z,58.71
2019-05-21T20:03:20.008Z,59.72
2019-05-21T20:04:19.993Z,59.42
2019-05-21T20:05:20.016Z,59.01
2019-05-21T20:06:20.043Z,58.30
2019-05-21T20:07:20.078Z,57.81
2019-05-21T20:08:20.013Z,57.54
2019-05-21T20:09:20.027Z,58.48
2019-05-21T20:10:19.987Z,58.19
2019-05-21T20:11:20.058Z,58.45
2019-05-21T20:12:20.032Z,58.58
2019-05-21T20:13:31.855Z,59.22
2019-05-21T20:14:20.069Z,60.02
2019-05-21T20:15:20.028Z,60.31
2019-05-21T20:16:20.012Z,60.34
2019-05-21T20:17:20.053Z,60.01
2019-05-21T20:18:20.176Z,59.41
2019-05-21T20:19:20.010Z,59.42
2019-05-21T20:20:20.063Z,59.29
2019-05-21T20:21:20.039Z,59.75
2019-05-21T20:22:20.048Z,59.13
2019-05-21T20:23:20.033Z,58.50
2019-05-21T20:24:20.048Z,58.22
2019-05-21T20:25:20.070Z,59.29
2019-05-21T20:26:20.060Z,59.44
2019-05-21T20:27:20.061Z,59.14
2019-05-21T20:28:20.051Z,59.47
2019-05-21T20:29:20.078Z,58.74
2019-05-21T20:30:20.093Z,58.85
2019-05-21T20:31:20.027Z,57.99
2019-05-21T20:32:20.044Z,58.22
2019-05-21T20:33:20.053Z,58.97
2019-05-21T20:34:20.078Z,59.30
2019-05-21T20:35:20.101Z,58.77
2019-05-21T20:36:20.071Z,59.08
2019-05-21T20:37:20.010Z,58.35
2019-05-21T20:38:20.077Z,58.84
2019-05-21T20:39:20.063Z,58.90
2019-05-21T20:40:20.021Z,59.14
2019-05-21T20:41:20.076Z,59.75
2019-05-21T20:42:20.067Z,58.50
2019-05-21T20:43:20.040Z,58.02
2019-05-21T20:44:20.037Z,57.95
2019-05-21T20:45:20.065Z,57.80
2019-05-21T20:46:20.046Z,57.93
2019-05-21T20:47:20.083Z,58.28
2019-05-21T20:48:20.065Z,58.09
2019-05-21T20:49:20.069Z,59.72
2019-05-21T20:50:20.046Z,60.08
2019-05-21T20:51:20.056Z,59.56
2019-05-21T20:52:20.056Z,58.98
2019-05-21T20:53:20.097Z,58.77
2019-05-21T20:54:20.078Z,58.33
2019-05-21T20:55:20.073Z,58.49
2019-05-21T20:56:20.055Z,59.68
2019-05-21T20:57:20.097Z,60.70
2019-05-21T20:58:20.122Z,62.57
2019-05-21T20:59:20.073Z,61.61
2019-05-21T21:00:20.070Z,61.76
2019-05-21T21:01:20.046Z,60.94
2019-05-21T21:02:20.082Z,60.07
2019-05-21T21:03:20.112Z,59.13
2019-05-21T21:04:20.106Z,58.86
2019-05-21T21:05:20.054Z,59.22
2019-05-21T21:06:34.321Z,59.02
2019-05-21T21:07:20.074Z,59.77
2019-05-21T21:08:20.069Z,61.42
2019-05-21T21:09:20.086Z,60.12
2019-05-21T21:10:20.143Z,59.63
2019-05-21T21:11:20.062Z,60.30
2019-05-21T21:12:20.080Z,60.96
2019-05-21T21:13:20.069Z,59.98
2019-05-21T21:14:20.104Z,60.14
2019-05-21T21:15:20.167Z,60.05
2019-05-21T21:16:20.049Z,59.58
2019-05-21T21:17:20.062Z,60.31
2019-05-21T21:18:20.106Z,60.81
2019-05-21T21:19:20.082Z,60.23
2019-05-21T21:20:20.162Z,59.95
2019-05-21T21:21:20.100Z,60.68
2019-05-21T21:22:20.076Z,61.83
2019-05-21T21:23:20.094Z,62.61
2019-05-21T21:24:20.084Z,61.75
2019-05-21T21:25:20.072Z,60.51
2019-05-21T21:26:20.193Z,60.20
2019-05-21T21:27:20.091Z,60.65
2019-05-21T21:28:20.121Z,62.22
2019-05-21T21:29:20.103Z,61.83
2019-05-21T21:30:20.089Z,60.72
2019-05-21T21:31:20.107Z,59.33
2019-05-21T21:32:20.110Z,58.53
2019-05-21T21:33:20.105Z,58.02
2019-05-21T21:34:20.080Z,58.00
2019-05-21T21:35:20.109Z,58.02
2019-05-21T21:36:20.131Z,57.30
2019-05-21T21:37:20.088Z,59.41
2019-05-21T21:38:20.523Z,60.25
2019-05-21T21:39:20.086Z,59.26
2019-05-21T21:40:20.504Z,58.57
2019-05-21T21:41:20.098Z,58.17
2019-05-21T21:42:20.121Z,58.62
2019-05-21T21:43:20.460Z,57.20
2019-05-21T21:44:33.143Z,56.67
2019-05-21T21:45:20.106Z,57.08
2019-05-21T21:46:20.366Z,58.15
2019-05-21T21:47:20.148Z,59.72
2019-05-21T21:48:20.133Z,61.09
2019-05-21T21:49:20.115Z,59.39
2019-05-21T21:50:20.093Z,59.95
2019-05-21T21:51:20.264Z,60.13
2019-05-21T21:52:20.098Z,59.03
2019-05-21T21:53:20.156Z,58.12
2019-05-21T21:54:20.123Z,58.08
2019-05-21T21:55:20.109Z,57.92
2019-05-21T21:56:20.111Z,57.96
2019-05-21T21:57:20.119Z,58.32
2019-05-21T21:58:20.110Z,58.38
2019-05-21T21:59:20.128Z,59.09
2019-05-21T22:00:20.142Z,58.54
2019-05-21T22:01:20.135Z,57.93
2019-05-21T22:02:20.140Z,59.65
2019-05-21T22:03:20.129Z,60.75
2019-05-21T22:04:20.119Z,60.75
2019-05-21T22:05:20.125Z,60.05
2019-05-21T22:06:20.146Z,60.25
2019-05-21T22:07:20.126Z,58.60
2019-05-21T22:08:20.160Z,58.68
2019-05-21T22:09:20.551Z,59.62
2019-05-21T22:10:20.177Z,59.53
2019-05-21T22:11:20.131Z,59.24
2019-05-21T22:12:20.118Z,59.24
2019-05-21T22:13:20.122Z,58.65
2019-05-21T22:14:20.146Z,57.72
2019-05-21T22:15:20.151Z,57.16
2019-05-21T22:16:20.114Z,57.74
2019-05-21T22:17:20.247Z,57.79
2019-05-21T22:18:20.135Z,57.47
2019-05-21T22:19:20.162Z,58.68
2019-05-21T22:20:20.154Z,59.22
2019-05-21T22:21:20.144Z,61.26
2019-05-21T22:22:20.151Z,59.67
2019-05-21T22:23:20.135Z,58.87
2019-05-21T22:24:20.156Z,58.43
2019-05-21T22:25:20.401Z,58.06
2019-05-21T22:26:20.161Z,57.80
2019-05-21T22:27:20.163Z,57.72
2019-05-21T22:28:20.226Z,57.77
2019-05-21T22:29:20.192Z,58.26
2019-05-21T22:30:20.152Z,59.15
2019-05-21T22:31:20.157Z,59.37
2019-05-21T22:32:20.126Z,58.52
2019-05-21T22:33:20.264Z,58.51
2019-05-21T22:34:20.224Z,57.68
2019-05-21T22:35:20.159Z,58.14
2019-05-21T22:36:20.158Z,58.07
2019-05-21T22:37:20.136Z,57.54
2019-05-21T22:38:20.146Z,58.14
2019-05-21T22:39:20.148Z,57.96
2019-05-21T22:40:20.171Z,58.16
2019-05-21T22:41:20.170Z,58.07
2019-05-21T22:42:20.150Z,58.39
2019-05-21T22:43:20.144Z,58.60
2019-05-21T22:44:20.152Z,59.79
2019-05-21T22:45:20.156Z,61.24
2019-05-21T22:46:20.173Z,62.42
2019-05-21T22:47:20.214Z,62.98
2019-05-21T22:48:20.174Z,63.54
2019-05-21T22:49:20.156Z,62.13
2019-05-21T22:50:20.165Z,61.22
2019-05-21T22:51:20.172Z,60.24
2019-05-21T22:52:20.215Z,59.28
2019-05-21T22:53:20.211Z,59.51
2019-05-21T22:54:20.172Z,59.38
2019-05-21T22:55:20.169Z,58.50
2019-05-21T22:56:20.246Z,58.69
2019-05-21T22:57:20.228Z,58.91
2019-05-21T22:58:20.162Z,58.97
2019-05-21T22:59:20.165Z,59.63
2019-05-21T23:00:20.198Z,58.98
2019-05-21T23:01:20.171Z,58.43
2019-05-21T23:02:20.213Z,59.08
2019-05-21T23:03:20.204Z,59.37
2019-05-21T23:04:20.232Z,59.44
2019-05-21T23:05:23.019Z,60.59
2019-05-21T23:06:20.174Z,60.49
2019-05-21T23:07:20.168Z,60.16
2019-05-21T23:08:20.192Z,59.99
2019-05-21T23:09:20.186Z,59.13
2019-05-21T23:10:20.188Z,59.60
2019-05-21T23:11:22.957Z,59.75
2019-05-21T23:12:20.177Z,62.76
2019-05-21T23:13:20.253Z,63.81
2019-05-21T23:14:20.184Z,63.50
2019-05-21T23:15:25.102Z,63.39
2019-05-21T23:16:20.185Z,62.61
2019-05-21T23:17:20.184Z,61.32
2019-05-21T23:18:20.213Z,60.51
2019-05-21T23:19:20.188Z,60.33
2019-05-21T23:20:20.198Z,59.50
2019-05-21T23:21:20.190Z,59.95
2019-05-21T23:22:20.217Z,59.62
2019-05-21T23:23:20.216Z,59.24
2019-05-21T23:24:20.207Z,59.90
2019-05-21T23:25:20.190Z,61.58
2019-05-21T23:26:20.183Z,62.72
2019-05-21T23:27:20.196Z,64.01
2019-05-21T23:28:20.209Z,63.14
2019-05-21T23:29:20.224Z,61.77
2019-05-21T23:30:20.198Z,60.96
2019-05-21T23:31:20.201Z,60.47
2019-05-21T23:32:20.241Z,60.29
2019-05-21T23:33:20.199Z,60.65
2019-05-21T23:34:20.214Z,59.92
2019-05-21T23:35:20.255Z,59.26
2019-05-21T23:36:20.210Z,59.11
2019-05-21T23:37:20.227Z,59.89
2019-05-21T23:38:20.188Z,59.46
2019-05-21T23:39:20.205Z,60.12
2019-05-21T23:40:20.270Z,59.72
2019-05-21T23:41:20.281Z,60.73
2019-05-21T23:42:28.936Z,61.43
2019-05-21T23:43:20.260Z,63.37
2019-05-21T23:44:20.186Z,63.22
2019-05-21T23:45:20.237Z,61.44
2019-05-21T23:46:20.213Z,60.86
2019-05-21T23:47:20.233Z,60.68
2019-05-21T23:48:20.213Z,60.22
2019-05-21T23:49:20.196Z,59.71
2019-05-21T23:50:20.224Z,59.69
2019-05-21T23:51:20.239Z,59.75
2019-05-21T23:52:20.248Z,59.73
2019-05-21T23:53:20.238Z,60.00
2019-05-21T23:54:20.243Z,60.94
2019-05-21T23:55:20.193Z,60.18
2019-05-21T23:56:20.215Z,60.10
2019-05-21T23:57:20.240Z,59.76
2019-05-21T23:58:20.239Z,59.80
2019-05-21T23:59:20.225Z,59.34
